sensor_id;sensor_type;location;lat;lon;timestamp;temperature;humidity
52295;DHT22;38243;53.212;6.574;2023-04-01T00:00:16;17.00;93.50
52295;DHT22;38243;53.212;6.574;2023-04-01T00:02:42;17.00;93.50
52295;DHT22;38243;53.212;6.574;2023-04-01T00:05:09;17.00;93.50
52295;DHT22;38243;53.212;6.574;2023-04-01T00:07:36;17.00;93.60
52295;DHT22;38243;53.212;6.574;2023-04-01T00:10:06;16.90;93.50
52295;DHT22;38243;53.212;6.574;2023-04-01T00:12:32;16.90;93.70
52295;DHT22;38243;53.212;6.574;2023-04-01T00:14:58;17.00;93.50
52295;DHT22;38243;53.212;6.574;2023-04-01T00:17:24;16.90;93.50
52295;DHT22;38243;53.212;6.574;2023-04-01T00:19:50;17.00;93.50
52295;DHT22;38243;53.212;6.574;2023-04-01T00:22:16;16.90;93.50
52295;DHT22;38243;53.212;6.574;2023-04-01T00:24:42;16.90;93.40
52295;DHT22;38243;53.212;6.574;2023-04-01T00:27:07;16.90;93.40
52295;DHT22;38243;53.212;6.574;2023-04-01T00:29:34;16.90;93.40
52295;DHT22;38243;53.212;6.574;2023-04-01T00:32:00;16.90;93.40
52295;DHT22;38243;53.212;6.574;2023-04-01T00:34:26;16.90;93.40
52295;DHT22;38243;53.212;6.574;2023-04-01T00:36:52;16.90;93.40
52295;DHT22;38243;53.212;6.574;2023-04-01T00:39:19;16.90;93.40
52295;DHT22;38243;53.212;6.574;2023-04-01T00:41:46;16.90;93.50
52295;DHT22;38243;53.212;6.574;2023-04-01T00:44:19;16.90;93.50
52295;DHT22;38243;53.212;6.574;2023-04-01T00:46:45;16.90;93.40
52295;DHT22;38243;53.212;6.574;2023-04-01T00:49:11;16.90;93.50
52295;DHT22;38243;53.212;6.574;2023-04-01T00:51:39;16.90;93.50
52295;DHT22;38243;53.212;6.574;2023-04-01T00:54:07;16.90;93.50
52295;DHT22;38243;53.212;6.574;2023-04-01T00:59:06;16.90;93.40
52295;DHT22;38243;53.212;6.574;2023-04-01T01:01:35;16.90;93.40
52295;DHT22;38243;53.212;6.574;2023-04-01T01:04:01;16.90;93.30
52295;DHT22;38243;53.212;6.574;2023-04-01T01:12:13;16.90;93.30
52295;DHT22;38243;53.212;6.574;2023-04-01T01:14:48;16.90;93.30
52295;DHT22;38243;53.212;6.574;2023-04-01T01:23:12;16.90;93.30
52295;DHT22;38243;53.212;6.574;2023-04-01T01:34:24;16.90;93.30
52295;DHT22;38243;53.212;6.574;2023-04-01T01:37:00;16.90;93.30
52295;DHT22;38243;53.212;6.574;2023-04-01T01:39:30;16.90;93.30
52295;DHT22;38243;53.212;6.574;2023-04-01T01:42:00;16.90;93.30
52295;DHT22;38243;53.212;6.574;2023-04-01T01:44:28;16.90;93.30
52295;DHT22;38243;53.212;6.574;2023-04-01T01:46:56;16.90;93.30
52295;DHT22;38243;53.212;6.574;2023-04-01T01:49:22;16.90;93.30
52295;DHT22;38243;53.212;6.574;2023-04-01T01:51:49;16.90;93.30
52295;DHT22;38243;53.212;6.574;2023-04-01T01:54:16;16.90;93.30
52295;DHT22;38243;53.212;6.574;2023-04-01T01:56:45;17.00;93.30
52295;DHT22;38243;53.212;6.574;2023-04-01T01:59:11;16.90;93.30
52295;DHT22;38243;53.212;6.574;2023-04-01T02:01:42;17.00;93.30
52295;DHT22;38243;53.212;6.574;2023-04-01T02:04:11;17.00;93.30
52295;DHT22;38243;53.212;6.574;2023-04-01T02:06:43;16.90;93.20
52295;DHT22;38243;53.212;6.574;2023-04-01T02:09:10;16.90;93.30
52295;DHT22;38243;53.212;6.574;2023-04-01T02:11:51;17.00;93.30
52295;DHT22;38243;53.212;6.574;2023-04-01T02:14:23;17.00;93.30
52295;DHT22;38243;53.212;6.574;2023-04-01T02:16:58;17.00;93.20
52295;DHT22;38243;53.212;6.574;2023-04-01T02:19:29;17.00;93.20
52295;DHT22;38243;53.212;6.574;2023-04-01T02:22:02;17.00;93.20
52295;DHT22;38243;53.212;6.574;2023-04-01T02:24:30;16.90;93.20
52295;DHT22;38243;53.212;6.574;2023-04-01T02:26:57;17.00;93.20
52295;DHT22;38243;53.212;6.574;2023-04-01T02:29:24;16.90;93.10
52295;DHT22;38243;53.212;6.574;2023-04-01T02:31:53;17.00;93.10
52295;DHT22;38243;53.212;6.574;2023-04-01T02:34:21;16.90;93.10
52295;DHT22;38243;53.212;6.574;2023-04-01T02:36:49;16.90;93.10
52295;DHT22;38243;53.212;6.574;2023-04-01T02:39:16;17.00;93.10
52295;DHT22;38243;53.212;6.574;2023-04-01T02:41:44;16.90;93.10
52295;DHT22;38243;53.212;6.574;2023-04-01T02:44:12;17.00;93.10
52295;DHT22;38243;53.212;6.574;2023-04-01T02:46:38;17.00;93.10
52295;DHT22;38243;53.212;6.574;2023-04-01T02:49:04;16.90;93.10
52295;DHT22;38243;53.212;6.574;2023-04-01T02:51:30;17.00;93.10
52295;DHT22;38243;53.212;6.574;2023-04-01T02:53:56;16.90;93.10
52295;DHT22;38243;53.212;6.574;2023-04-01T02:56:21;16.90;93.10
52295;DHT22;38243;53.212;6.574;2023-04-01T02:58:47;16.90;93.10
52295;DHT22;38243;53.212;6.574;2023-04-01T03:01:13;16.90;93.10
52295;DHT22;38243;53.212;6.574;2023-04-01T03:03:39;16.90;93.10
52295;DHT22;38243;53.212;6.574;2023-04-01T03:06:10;16.90;93.40
52295;DHT22;38243;53.212;6.574;2023-04-01T03:08:36;16.90;93.10
52295;DHT22;38243;53.212;6.574;2023-04-01T03:11:02;16.90;93.10
52295;DHT22;38243;53.212;6.574;2023-04-01T03:13:28;16.90;93.00
52295;DHT22;38243;53.212;6.574;2023-04-01T03:15:54;16.90;93.00
52295;DHT22;38243;53.212;6.574;2023-04-01T03:18:20;17.00;93.00
52295;DHT22;38243;53.212;6.574;2023-04-01T03:20:46;16.90;92.90
52295;DHT22;38243;53.212;6.574;2023-04-01T03:23:11;16.90;92.90
52295;DHT22;38243;53.212;6.574;2023-04-01T03:25:37;17.00;92.90
52295;DHT22;38243;53.212;6.574;2023-04-01T03:28:03;16.90;92.90
52295;DHT22;38243;53.212;6.574;2023-04-01T03:30:29;16.90;92.80
52295;DHT22;38243;53.212;6.574;2023-04-01T03:32:59;17.00;92.80
52295;DHT22;38243;53.212;6.574;2023-04-01T03:35:26;17.00;92.80
52295;DHT22;38243;53.212;6.574;2023-04-01T03:37:53;17.00;92.80
52295;DHT22;38243;53.212;6.574;2023-04-01T03:40:19;17.00;92.80
52295;DHT22;38243;53.212;6.574;2023-04-01T03:42:46;17.00;92.80
52295;DHT22;38243;53.212;6.574;2023-04-01T03:45:12;17.00;92.80
52295;DHT22;38243;53.212;6.574;2023-04-01T03:47:38;17.00;92.70
52295;DHT22;38243;53.212;6.574;2023-04-01T03:50:06;16.90;92.70
52295;DHT22;38243;53.212;6.574;2023-04-01T03:52:32;17.00;92.70
52295;DHT22;38243;53.212;6.574;2023-04-01T03:54:58;17.00;92.70
52295;DHT22;38243;53.212;6.574;2023-04-01T03:57:24;17.00;92.70
52295;DHT22;38243;53.212;6.574;2023-04-01T03:59:50;16.90;92.70
52295;DHT22;38243;53.212;6.574;2023-04-01T04:02:16;16.90;92.70
52295;DHT22;38243;53.212;6.574;2023-04-01T04:04:41;17.00;92.70
52295;DHT22;38243;53.212;6.574;2023-04-01T04:07:07;16.90;92.60
52295;DHT22;38243;53.212;6.574;2023-04-01T04:09:33;16.90;92.60
52295;DHT22;38243;53.212;6.574;2023-04-01T04:12:00;17.00;92.70
52295;DHT22;38243;53.212;6.574;2023-04-01T04:14:26;16.90;92.70
52295;DHT22;38243;53.212;6.574;2023-04-01T04:16:52;17.00;92.70
52295;DHT22;38243;53.212;6.574;2023-04-01T04:19:18;16.90;92.60
52295;DHT22;38243;53.212;6.574;2023-04-01T04:21:43;16.90;92.60
52295;DHT22;38243;53.212;6.574;2023-04-01T04:24:09;16.90;92.60
52295;DHT22;38243;53.212;6.574;2023-04-01T04:26:35;16.90;92.60
52295;DHT22;38243;53.212;6.574;2023-04-01T04:29:02;16.90;92.60
52295;DHT22;38243;53.212;6.574;2023-04-01T04:31:28;16.90;92.60
52295;DHT22;38243;53.212;6.574;2023-04-01T04:33:54;16.90;92.60
52295;DHT22;38243;53.212;6.574;2023-04-01T04:36:21;16.90;92.60
52295;DHT22;38243;53.212;6.574;2023-04-01T04:38:47;16.90;92.60
52295;DHT22;38243;53.212;6.574;2023-04-01T04:41:14;16.90;92.60
52295;DHT22;38243;53.212;6.574;2023-04-01T04:43:41;16.90;92.60
52295;DHT22;38243;53.212;6.574;2023-04-01T04:46:10;16.90;92.60
52295;DHT22;38243;53.212;6.574;2023-04-01T04:48:36;16.90;92.60
52295;DHT22;38243;53.212;6.574;2023-04-01T04:51:02;16.90;92.60
52295;DHT22;38243;53.212;6.574;2023-04-01T04:53:28;16.90;92.60
52295;DHT22;38243;53.212;6.574;2023-04-01T04:55:54;16.90;92.60
52295;DHT22;38243;53.212;6.574;2023-04-01T04:58:20;16.90;92.60
52295;DHT22;38243;53.212;6.574;2023-04-01T05:00:46;16.90;92.50
52295;DHT22;38243;53.212;6.574;2023-04-01T05:03:13;17.00;92.60
52295;DHT22;38243;53.212;6.574;2023-04-01T05:05:39;16.90;92.60
52295;DHT22;38243;53.212;6.574;2023-04-01T05:08:05;16.90;92.60
52295;DHT22;38243;53.212;6.574;2023-04-01T05:10:30;16.90;92.60
52295;DHT22;38243;53.212;6.574;2023-04-01T05:12:57;16.90;92.60
52295;DHT22;38243;53.212;6.574;2023-04-01T05:15:23;16.90;92.60
52295;DHT22;38243;53.212;6.574;2023-04-01T05:17:48;16.90;92.60
52295;DHT22;38243;53.212;6.574;2023-04-01T05:20:14;16.90;92.60
52295;DHT22;38243;53.212;6.574;2023-04-01T05:22:41;16.90;92.60
52295;DHT22;38243;53.212;6.574;2023-04-01T05:25:06;16.90;92.60
52295;DHT22;38243;53.212;6.574;2023-04-01T05:27:32;17.00;92.60
52295;DHT22;38243;53.212;6.574;2023-04-01T05:29:58;16.90;92.60
52295;DHT22;38243;53.212;6.574;2023-04-01T05:32:24;17.00;92.60
52295;DHT22;38243;53.212;6.574;2023-04-01T05:34:51;17.00;92.70
52295;DHT22;38243;53.212;6.574;2023-04-01T05:37:17;16.90;92.70
52295;DHT22;38243;53.212;6.574;2023-04-01T05:39:43;16.90;92.90
52295;DHT22;38243;53.212;6.574;2023-04-01T05:42:09;17.00;93.20
52295;DHT22;38243;53.212;6.574;2023-04-01T05:44:35;17.00;93.50
52295;DHT22;38243;53.212;6.574;2023-04-01T05:47:02;17.00;93.60
52295;DHT22;38243;53.212;6.574;2023-04-01T05:49:28;17.00;93.70
52295;DHT22;38243;53.212;6.574;2023-04-01T05:51:54;17.00;93.70
52295;DHT22;38243;53.212;6.574;2023-04-01T05:54:20;17.00;93.70
52295;DHT22;38243;53.212;6.574;2023-04-01T05:56:46;17.00;93.90
52295;DHT22;38243;53.212;6.574;2023-04-01T05:59:12;17.00;94.00
52295;DHT22;38243;53.212;6.574;2023-04-01T06:01:38;17.00;94.10
52295;DHT22;38243;53.212;6.574;2023-04-01T06:04:04;17.00;94.10
52295;DHT22;38243;53.212;6.574;2023-04-01T06:06:31;17.00;94.30
52295;DHT22;38243;53.212;6.574;2023-04-01T06:09:07;16.90;93.90
52295;DHT22;38243;53.212;6.574;2023-04-01T06:11:35;16.90;93.80
52295;DHT22;38243;53.212;6.574;2023-04-01T06:14:16;16.90;93.80
52295;DHT22;38243;53.212;6.574;2023-04-01T06:17:04;16.90;93.70
52295;DHT22;38243;53.212;6.574;2023-04-01T06:19:36;16.90;93.70
52295;DHT22;38243;53.212;6.574;2023-04-01T06:22:16;16.90;93.70
52295;DHT22;38243;53.212;6.574;2023-04-01T06:25:18;16.90;93.60
52295;DHT22;38243;53.212;6.574;2023-04-01T06:31:25;16.90;93.60
52295;DHT22;38243;53.212;6.574;2023-04-01T06:39:13;16.90;93.70
52295;DHT22;38243;53.212;6.574;2023-04-01T06:42:09;16.90;93.70
52295;DHT22;38243;53.212;6.574;2023-04-01T06:53:05;17.00;93.70
52295;DHT22;38243;53.212;6.574;2023-04-01T06:55:48;17.00;93.70
52295;DHT22;38243;53.212;6.574;2023-04-01T06:58:21;16.90;93.60
52295;DHT22;38243;53.212;6.574;2023-04-01T07:00:51;17.00;93.70
52295;DHT22;38243;53.212;6.574;2023-04-01T07:05:44;17.00;93.60
52295;DHT22;38243;53.212;6.574;2023-04-01T07:08:13;17.00;93.60
52295;DHT22;38243;53.212;6.574;2023-04-01T07:13:36;17.00;93.60
52295;DHT22;38243;53.212;6.574;2023-04-01T07:19:16;17.00;93.60
52295;DHT22;38243;53.212;6.574;2023-04-01T07:21:51;17.00;93.60
52295;DHT22;38243;53.212;6.574;2023-04-01T07:24:24;17.00;93.50
52295;DHT22;38243;53.212;6.574;2023-04-01T07:26:54;17.00;93.60
52295;DHT22;38243;53.212;6.574;2023-04-01T07:29:21;17.00;93.70
52295;DHT22;38243;53.212;6.574;2023-04-01T07:32:07;17.00;93.70
52295;DHT22;38243;53.212;6.574;2023-04-01T07:48:26;17.10;93.70
52295;DHT22;38243;53.212;6.574;2023-04-01T07:51:03;17.10;93.70
52295;DHT22;38243;53.212;6.574;2023-04-01T07:56:07;17.10;94.00
52295;DHT22;38243;53.212;6.574;2023-04-01T07:58:50;17.10;94.10
52295;DHT22;38243;53.212;6.574;2023-04-01T08:07:07;17.10;94.10
52295;DHT22;38243;53.212;6.574;2023-04-01T08:18:01;17.10;95.00
52295;DHT22;38243;53.212;6.574;2023-04-01T08:23:11;17.20;94.90
52295;DHT22;38243;53.212;6.574;2023-04-01T08:25:56;17.20;94.70
52295;DHT22;38243;53.212;6.574;2023-04-01T08:28:41;17.20;94.70
52295;DHT22;38243;53.212;6.574;2023-04-01T08:31:31;17.20;94.50
52295;DHT22;38243;53.212;6.574;2023-04-01T08:33:58;17.20;94.40
52295;DHT22;38243;53.212;6.574;2023-04-01T08:36:31;17.20;94.70
52295;DHT22;38243;53.212;6.574;2023-04-01T08:39:10;17.20;94.60
52295;DHT22;38243;53.212;6.574;2023-04-01T08:42:02;17.20;94.60
52295;DHT22;38243;53.212;6.574;2023-04-01T08:45:10;17.20;94.50
52295;DHT22;38243;53.212;6.574;2023-04-01T08:47:46;17.20;94.50
52295;DHT22;38243;53.212;6.574;2023-04-01T08:53:26;17.30;94.50
52295;DHT22;38243;53.212;6.574;2023-04-01T08:56:20;17.30;94.50
52295;DHT22;38243;53.212;6.574;2023-04-01T09:23:47;17.20;93.80
52295;DHT22;38243;53.212;6.574;2023-04-01T09:35:48;17.20;93.60
52295;DHT22;38243;53.212;6.574;2023-04-01T09:43:25;17.20;93.50
52295;DHT22;38243;53.212;6.574;2023-04-01T09:48:50;17.20;93.30
52295;DHT22;38243;53.212;6.574;2023-04-01T10:36:58;17.20;92.20
52295;DHT22;38243;53.212;6.574;2023-04-01T10:39:34;17.10;92.20
52295;DHT22;38243;53.212;6.574;2023-04-01T11:15:40;17.10;91.50
52295;DHT22;38243;53.212;6.574;2023-04-01T11:26:39;17.10;91.40
52295;DHT22;38243;53.212;6.574;2023-04-01T11:35:25;17.10;91.40
52295;DHT22;38243;53.212;6.574;2023-04-01T11:41:19;17.10;91.30
52295;DHT22;38243;53.212;6.574;2023-04-01T11:44:11;17.10;91.30
52295;DHT22;38243;53.212;6.574;2023-04-01T11:58:25;17.20;91.10
52295;DHT22;38243;53.212;6.574;2023-04-01T12:17:29;17.20;90.80
52295;DHT22;38243;53.212;6.574;2023-04-01T12:23:27;17.20;90.70
52295;DHT22;38243;53.212;6.574;2023-04-01T12:26:19;17.20;90.70
52295;DHT22;38243;53.212;6.574;2023-04-01T12:51:52;17.20;90.40
52295;DHT22;38243;53.212;6.574;2023-04-01T13:16:45;17.20;90.00
52295;DHT22;38243;53.212;6.574;2023-04-01T13:19:36;17.20;90.00
52295;DHT22;38243;53.212;6.574;2023-04-01T13:22:38;17.20;90.00
52295;DHT22;38243;53.212;6.574;2023-04-01T13:44:38;17.20;89.60
52295;DHT22;38243;53.212;6.574;2023-04-01T13:50:26;17.20;89.50
52295;DHT22;38243;53.212;6.574;2023-04-01T13:55:30;17.20;89.50
52295;DHT22;38243;53.212;6.574;2023-04-01T13:58:27;17.20;89.40
52295;DHT22;38243;53.212;6.574;2023-04-01T14:01:10;17.20;89.10
52295;DHT22;38243;53.212;6.574;2023-04-01T14:03:49;17.20;88.90
52295;DHT22;38243;53.212;6.574;2023-04-01T14:11:47;17.20;89.00
52295;DHT22;38243;53.212;6.574;2023-04-01T14:14:24;17.20;88.90
52295;DHT22;38243;53.212;6.574;2023-04-01T14:17:14;17.10;88.80
52295;DHT22;38243;53.212;6.574;2023-04-01T14:23:02;17.10;88.60
52295;DHT22;38243;53.212;6.574;2023-04-01T14:37:05;17.00;88.20
52295;DHT22;38243;53.212;6.574;2023-04-01T14:46:12;17.00;88.20
52295;DHT22;38243;53.212;6.574;2023-04-01T14:48:50;17.00;88.30
52295;DHT22;38243;53.212;6.574;2023-04-01T14:51:35;17.00;88.30
52295;DHT22;38243;53.212;6.574;2023-04-01T14:54:16;17.00;88.40
52295;DHT22;38243;53.212;6.574;2023-04-01T14:59:54;17.00;88.10
52295;DHT22;38243;53.212;6.574;2023-04-01T15:08:35;17.00;88.00
52295;DHT22;38243;53.212;6.574;2023-04-01T15:20:02;16.90;87.30
52295;DHT22;38243;53.212;6.574;2023-04-01T15:22:47;17.00;87.50
52295;DHT22;38243;53.212;6.574;2023-04-01T15:25:39;16.90;87.20
52295;DHT22;38243;53.212;6.574;2023-04-01T15:39:38;16.90;87.00
52295;DHT22;38243;53.212;6.574;2023-04-01T15:42:19;16.90;86.90
52295;DHT22;38243;53.212;6.574;2023-04-01T15:58:35;16.80;86.30
52295;DHT22;38243;53.212;6.574;2023-04-01T16:04:04;16.80;86.30
52295;DHT22;38243;53.212;6.574;2023-04-01T16:06:38;16.80;86.10
52295;DHT22;38243;53.212;6.574;2023-04-01T16:12:25;16.80;86.20
52295;DHT22;38243;53.212;6.574;2023-04-01T16:23:43;16.70;85.90
52295;DHT22;38243;53.212;6.574;2023-04-01T16:26:21;16.70;85.90
52295;DHT22;38243;53.212;6.574;2023-04-01T16:29:10;16.70;85.80
52295;DHT22;38243;53.212;6.574;2023-04-01T16:34:30;16.70;86.00
52295;DHT22;38243;53.212;6.574;2023-04-01T16:43:28;16.70;85.80
52295;DHT22;38243;53.212;6.574;2023-04-01T16:46:14;16.60;85.40
52295;DHT22;38243;53.212;6.574;2023-04-01T16:49:03;16.60;85.20
52295;DHT22;38243;53.212;6.574;2023-04-01T16:57:25;16.60;85.20
52295;DHT22;38243;53.212;6.574;2023-04-01T17:02:35;16.50;85.50
52295;DHT22;38243;53.212;6.574;2023-04-01T17:05:08;16.60;85.30
52295;DHT22;38243;53.212;6.574;2023-04-01T17:07:38;16.50;85.20
52295;DHT22;38243;53.212;6.574;2023-04-01T17:18:15;16.40;84.50
52295;DHT22;38243;53.212;6.574;2023-04-01T17:30:13;16.40;84.60
52295;DHT22;38243;53.212;6.574;2023-04-01T17:35:27;16.40;84.80
52295;DHT22;38243;53.212;6.574;2023-04-01T17:43:48;16.30;84.50
52295;DHT22;38243;53.212;6.574;2023-04-01T17:54:33;16.30;84.70
52295;DHT22;38243;53.212;6.574;2023-04-01T18:00:24;16.30;84.80
52295;DHT22;38243;53.212;6.574;2023-04-01T18:06:11;16.30;84.80
52295;DHT22;38243;53.212;6.574;2023-04-01T18:22:28;16.30;84.20
52295;DHT22;38243;53.212;6.574;2023-04-01T18:27:43;16.20;84.10
52295;DHT22;38243;53.212;6.574;2023-04-01T18:30:37;16.20;84.10
52295;DHT22;38243;53.212;6.574;2023-04-01T18:33:23;16.20;84.30
52295;DHT22;38243;53.212;6.574;2023-04-01T18:38:39;16.20;84.10
52295;DHT22;38243;53.212;6.574;2023-04-01T18:41:32;16.20;84.20
52295;DHT22;38243;53.212;6.574;2023-04-01T18:49:55;16.20;84.20
52295;DHT22;38243;53.212;6.574;2023-04-01T18:52:38;16.10;84.00
52295;DHT22;38243;53.212;6.574;2023-04-01T18:57:49;16.10;84.00
52295;DHT22;38243;53.212;6.574;2023-04-01T19:00:39;16.10;83.90
52295;DHT22;38243;53.212;6.574;2023-04-01T19:05:49;16.10;83.70
52295;DHT22;38243;53.212;6.574;2023-04-01T19:08:30;16.10;83.70
52295;DHT22;38243;53.212;6.574;2023-04-01T19:16:34;16.10;83.60
52295;DHT22;38243;53.212;6.574;2023-04-01T19:24:50;16.00;83.20
52295;DHT22;38243;53.212;6.574;2023-04-01T19:27:29;16.10;83.50
52295;DHT22;38243;53.212;6.574;2023-04-01T19:35:47;16.00;83.40
52295;DHT22;38243;53.212;6.574;2023-04-01T19:38:40;16.00;83.50
52295;DHT22;38243;53.212;6.574;2023-04-01T19:46:49;16.80;83.40
52295;DHT22;38243;53.212;6.574;2023-04-01T19:52:36;15.90;82.80
52295;DHT22;38243;53.212;6.574;2023-04-01T19:58:02;15.90;83.10
52295;DHT22;38243;53.212;6.574;2023-04-01T20:00:36;15.90;82.90
52295;DHT22;38243;53.212;6.574;2023-04-01T20:06:06;15.90;82.90
52295;DHT22;38243;53.212;6.574;2023-04-01T20:08:45;15.90;82.80
52295;DHT22;38243;53.212;6.574;2023-04-01T20:16:55;15.90;82.40
52295;DHT22;38243;53.212;6.574;2023-04-01T20:19:51;15.80;82.50
52295;DHT22;38243;53.212;6.574;2023-04-01T20:25:26;15.80;82.70
52295;DHT22;38243;53.212;6.574;2023-04-01T20:46:25;15.80;82.10
52295;DHT22;38243;53.212;6.574;2023-04-01T20:51:30;15.80;82.40
52295;DHT22;38243;53.212;6.574;2023-04-01T20:54:33;15.80;82.50
52295;DHT22;38243;53.212;6.574;2023-04-01T20:57:24;15.80;82.40
52295;DHT22;38243;53.212;6.574;2023-04-01T21:10:41;15.80;82.20
52295;DHT22;38243;53.212;6.574;2023-04-01T21:21:50;15.80;82.20
52295;DHT22;38243;53.212;6.574;2023-04-01T21:30:21;15.80;82.10
52295;DHT22;38243;53.212;6.574;2023-04-01T21:33:23;15.70;82.30
52295;DHT22;38243;53.212;6.574;2023-04-01T21:36:11;15.70;81.90
52295;DHT22;38243;53.212;6.574;2023-04-01T21:47:02;15.70;81.70
52295;DHT22;38243;53.212;6.574;2023-04-01T22:00:31;15.60;81.30
52295;DHT22;38243;53.212;6.574;2023-04-01T22:08:48;15.60;80.80
52295;DHT22;38243;53.212;6.574;2023-04-01T22:11:44;15.60;80.80
52295;DHT22;38243;53.212;6.574;2023-04-01T22:17:03;15.60;80.90
52295;DHT22;38243;53.212;6.574;2023-04-01T22:19:40;15.50;80.90
52295;DHT22;38243;53.212;6.574;2023-04-01T22:27:41;15.50;80.40
52295;DHT22;38243;53.212;6.574;2023-04-01T22:30:34;15.50;80.50
52295;DHT22;38243;53.212;6.574;2023-04-01T22:33:15;15.50;80.80
52295;DHT22;38243;53.212;6.574;2023-04-01T22:41:07;15.50;81.20
52295;DHT22;38243;53.212;6.574;2023-04-01T22:43:36;15.50;81.30
52295;DHT22;38243;53.212;6.574;2023-04-01T22:49:10;15.50;81.00
52295;DHT22;38243;53.212;6.574;2023-04-01T22:54:19;15.50;81.20
52295;DHT22;38243;53.212;6.574;2023-04-01T22:59:23;15.50;81.20
52295;DHT22;38243;53.212;6.574;2023-04-01T23:02:06;15.50;81.00
52295;DHT22;38243;53.212;6.574;2023-04-01T23:04:38;15.60;81.20
52295;DHT22;38243;53.212;6.574;2023-04-01T23:10:41;15.50;80.80
52295;DHT22;38243;53.212;6.574;2023-04-01T23:13:18;15.50;80.60
52295;DHT22;38243;53.212;6.574;2023-04-01T23:15:45;15.50;80.60
52295;DHT22;38243;53.212;6.574;2023-04-01T23:23:48;15.50;80.40
52295;DHT22;38243;53.212;6.574;2023-04-01T23:26:39;15.50;80.30
52295;DHT22;38243;53.212;6.574;2023-04-01T23:29:14;15.50;80.40
52295;DHT22;38243;53.212;6.574;2023-04-01T23:31:42;15.40;80.20
52295;DHT22;38243;53.212;6.574;2023-04-01T23:39:58;15.40;79.50
52295;DHT22;38243;53.212;6.574;2023-04-01T23:42:30;15.40;79.90
52295;DHT22;38243;53.212;6.574;2023-04-01T23:44:58;15.40;79.80
52295;DHT22;38243;53.212;6.574;2023-04-01T23:47:32;15.40;79.90
52295;DHT22;38243;53.212;6.574;2023-04-01T23:50:04;15.40;79.80
52295;DHT22;38243;53.212;6.574;2023-04-01T23:55:33;15.40;79.60
